Time;durP1;ratioP1;P1;durP2;ratioP2;P2;SDS_P1;SDS_P2;PMS_P1;PMS_P2;Temp;Humidity;BMP_temperature;BMP_pressure;BME280_temperature;BME280_humidity;BME280_pressure;Samples;Min_cycle;Max_cycle;Signal;HPM_P1;HPM_P2
2023/07/13 00:00:59;;;;;;;10.60;6.90;;;;;;;;;;6267961;28;20021;-82
2023/07/13 00:03:59;;;;;;;9.30;5.60;;;;;;;;;;6264621;28;20035;-83
2023/07/13 00:07:00;;;;;;;11.52;5.72;;;;;;;;;;6245827;28;20480;-84
2023/07/13 00:10:01;;;;;;;10.10;6.33;;;;;;;;;;6266266;28;20029;-84
2023/07/13 00:13:01;;;;;;;8.47;5.13;;;;;;;;;;6269209;28;20039;-84
2023/07/13 00:16:01;;;;;;;9.53;5.57;;;;;;;;;;6268250;28;20444;-83
2023/07/13 00:19:02;;;;;;;9.13;5.43;;;;;;;;;;6267592;28;20031;-84
2023/07/13 00:22:02;;;;;;;6.93;5.07;;;;;;;;;;6267388;28;20020;-84
2023/07/13 00:25:03;;;;;;;8.57;4.93;;;;;;;;;;6249456;28;20078;-83
2023/07/13 00:28:03;;;;;;;11.67;5.53;;;;;;;;;;6262998;28;20491;-83
2023/07/13 00:31:04;;;;;;;7.73;4.30;;;;;;;;;;6248170;28;20025;-85
2023/07/13 00:34:05;;;;;;;9.57;6.13;;;;;;;;;;6246489;28;20114;-86
2023/07/13 00:37:06;;;;;;;10.90;7.47;;;;;;;;;;6267161;28;20021;-85
2023/07/13 00:40:07;;;;;;;12.05;6.85;;;;;;;;;;6266617;28;20014;-84
2023/07/13 00:43:12;;;;;;;10.77;6.53;;;;;;;;;;6266511;28;20021;-84
2023/07/13 00:46:32;;;;;;;10.70;6.65;;;;;;;;;;6265905;28;20021;-83
2023/07/13 00:49:35;;;;;;;12.05;7.90;;;;;;;;;;6263014;28;20379;-84
2023/07/13 00:52:37;;;;;;;10.48;7.97;;;;;;;;;;6243955;28;20103;-84
2023/07/13 00:55:37;;;;;;;12.55;7.60;;;;;;;;;;6276768;28;20549;-84
2023/07/13 00:58:38;;;;;;;13.77;7.50;;;;;;;;;;6273266;28;20024;-85
2023/07/13 01:01:39;;;;;;;10.77;8.00;;;;;;;;;;6291475;28;20021;-84
2023/07/13 01:04:39;;;;;;;10.43;6.83;;;;;;;;;;6273290;28;20017;-85
2023/07/13 01:07:40;;;;;;;10.17;7.80;;;;;;;;;;6291237;28;20043;-84
2023/07/13 01:10:41;;;;;;;16.13;8.98;;;;;;;;;;6273663;28;20025;-85
2023/07/13 01:13:41;;;;;;;13.40;9.03;;;;;;;;;;6295321;28;20040;-84
2023/07/13 01:16:42;;;;;;;11.80;8.13;;;;;;;;;;6292705;28;20031;-85
2023/07/13 01:19:44;;;;;;;13.38;9.05;;;;;;;;;;6275023;28;20027;-85
2023/07/13 01:22:44;;;;;;;16.77;9.43;;;;;;;;;;6276634;28;20054;-85
2023/07/13 01:25:45;;;;;;;14.37;9.47;;;;;;;;;;6277363;28;20029;-85
2023/07/13 01:28:45;;;;;;;12.60;8.87;;;;;;;;;;6271914;28;20035;-85
2023/07/13 01:31:46;;;;;;;15.03;8.83;;;;;;;;;;6288818;28;20055;-84
2023/07/13 01:34:46;;;;;;;12.27;8.87;;;;;;;;;;6272946;28;20049;-85
2023/07/13 01:37:46;;;;;;;15.10;10.00;;;;;;;;;;6270444;28;20051;-85
2023/07/13 01:40:47;;;;;;;13.43;9.30;;;;;;;;;;6274267;28;20016;-84
2023/07/13 01:43:47;;;;;;;13.00;10.53;;;;;;;;;;6273062;28;20024;-85
2023/07/13 01:46:49;;;;;;;14.73;9.33;;;;;;;;;;6292911;28;20020;-85
2023/07/13 01:49:51;;;;;;;13.15;9.65;;;;;;;;;;6274543;28;20029;-85
2023/07/13 01:52:52;;;;;;;16.92;9.75;;;;;;;;;;6290864;28;20025;-85
2023/07/13 01:55:52;;;;;;;13.03;9.40;;;;;;;;;;6273589;28;20483;-85
2023/07/13 01:58:52;;;;;;;11.33;7.47;;;;;;;;;;6271724;28;20044;-85
2023/07/13 02:01:52;;;;;;;11.90;7.80;;;;;;;;;;6293875;28;20489;-85
2023/07/13 02:04:53;;;;;;;13.93;8.70;;;;;;;;;;6273607;28;20024;-85
2023/07/13 02:07:53;;;;;;;14.70;9.37;;;;;;;;;;6275643;28;20063;-85
2023/07/13 02:10:54;;;;;;;14.10;9.87;;;;;;;;;;6294183;28;20032;-85
2023/07/13 02:13:54;;;;;;;14.80;10.07;;;;;;;;;;6288589;28;20032;-85
2023/07/13 02:16:54;;;;;;;14.67;9.73;;;;;;;;;;6294093;28;20028;-86
2023/07/13 02:19:54;;;;;;;17.40;11.03;;;;;;;;;;6291284;28;20021;-85
2023/07/13 02:22:54;;;;;;;15.60;9.67;;;;;;;;;;6275827;28;20029;-85
2023/07/13 02:25:59;;;;;;;12.27;8.53;;;;;;;;;;6290922;28;20024;-86
2023/07/13 02:28:59;;;;;;;12.77;8.60;;;;;;;;;;6292962;28;20024;-85
2023/07/13 02:31:59;;;;;;;16.80;10.67;;;;;;;;;;6286843;28;20021;-85
2023/07/13 02:35:00;;;;;;;17.80;12.27;;;;;;;;;;6275584;28;20127;-86
2023/07/13 02:38:00;;;;;;;15.90;10.73;;;;;;;;;;6273300;28;20016;-85
2023/07/13 02:41:01;;;;;;;16.20;10.93;;;;;;;;;;6293712;28;20021;-85
2023/07/13 02:44:05;;;;;;;18.75;13.10;;;;;;;;;;6274814;28;20111;-85
2023/07/13 02:47:05;;;;;;;20.35;13.57;;;;;;;;;;6293379;28;20482;-85
2023/07/13 02:50:06;;;;;;;17.00;12.27;;;;;;;;;;6274830;28;20066;-85
2023/07/13 02:53:06;;;;;;;15.80;11.73;;;;;;;;;;6273274;28;20028;-85
2023/07/13 02:56:07;;;;;;;18.87;13.33;;;;;;;;;;6268480;28;20462;-85
2023/07/13 02:59:07;;;;;;;18.67;12.32;;;;;;;;;;6270889;28;20070;-85
2023/07/13 03:02:08;;;;;;;21.43;13.20;;;;;;;;;;6274995;28;20104;-85
2023/07/13 03:05:10;;;;;;;14.10;10.77;;;;;;;;;;6294097;28;20040;-85
2023/07/13 03:08:11;;;;;;;17.08;11.70;;;;;;;;;;6293743;28;20524;-85
2023/07/13 03:11:13;;;;;;;18.60;12.13;;;;;;;;;;6276420;28;20028;-85
2023/07/13 03:14:13;;;;;;;17.27;12.07;;;;;;;;;;6288170;28;20463;-85
2023/07/13 03:17:14;;;;;;;17.97;13.60;;;;;;;;;;6276014;28;20024;-85
2023/07/13 03:20:14;;;;;;;15.67;10.73;;;;;;;;;;6293468;28;20024;-85
2023/07/13 03:23:14;;;;;;;15.13;11.60;;;;;;;;;;6289084;28;20075;-85
2023/07/13 03:26:16;;;;;;;14.87;11.03;;;;;;;;;;6293026;28;20043;-85
2023/07/13 03:29:16;;;;;;;17.10;11.45;;;;;;;;;;6290040;28;20028;-85
2023/07/13 03:32:16;;;;;;;15.93;12.57;;;;;;;;;;6292857;28;20027;-85
2023/07/13 03:35:17;;;;;;;21.10;12.07;;;;;;;;;;6273939;28;20129;-85
2023/07/13 03:38:17;;;;;;;17.10;11.63;;;;;;;;;;6276394;28;20127;-85
2023/07/13 03:41:17;;;;;;;13.82;11.40;;;;;;;;;;6277253;28;20487;-85
2023/07/13 03:44:18;;;;;;;16.47;11.77;;;;;;;;;;6273591;28;20055;-85
2023/07/13 03:47:18;;;;;;;14.00;10.47;;;;;;;;;;6274197;28;20047;-85
2023/07/13 03:50:18;;;;;;;15.87;11.33;;;;;;;;;;6290403;28;20016;-85
2023/07/13 03:53:19;;;;;;;21.07;11.17;;;;;;;;;;6272841;28;20024;-85
2023/07/13 03:56:19;;;;;;;16.70;10.60;;;;;;;;;;6268693;28;20056;-85
2023/07/13 03:59:19;;;;;;;13.37;10.70;;;;;;;;;;6271666;28;20013;-85
2023/07/13 04:02:19;;;;;;;16.70;10.67;;;;;;;;;;6267090;28;20455;-85
2023/07/13 04:05:20;;;;;;;16.67;11.93;;;;;;;;;;6270854;28;20025;-85
2023/07/13 04:08:20;;;;;;;13.10;9.87;;;;;;;;;;6270426;28;20017;-85
2023/07/13 04:11:21;;;;;;;16.10;11.40;;;;;;;;;;6270722;28;20018;-85
2023/07/13 04:14:21;;;;;;;15.85;12.02;;;;;;;;;;6271075;28;20052;-85
2023/07/13 04:17:21;;;;;;;15.67;11.63;;;;;;;;;;6269984;28;20009;-85
2023/07/13 04:20:22;;;;;;;15.00;11.43;;;;;;;;;;6271028;28;20006;-85
2023/07/13 04:23:22;;;;;;;12.70;10.17;;;;;;;;;;6265639;28;20024;-85
2023/07/13 04:26:23;;;;;;;14.23;10.47;;;;;;;;;;6272041;28;20029;-85
2023/07/13 04:29:23;;;;;;;12.83;10.47;;;;;;;;;;6271297;28;20033;-85
2023/07/13 04:32:23;;;;;;;14.33;10.50;;;;;;;;;;6267743;28;20028;-85
2023/07/13 04:35:24;;;;;;;16.00;11.00;;;;;;;;;;6270356;28;20025;-85
2023/07/13 04:38:27;;;;;;;16.70;11.33;;;;;;;;;;6270951;28;20028;-85
2023/07/13 04:41:28;;;;;;;17.65;11.20;;;;;;;;;;6273525;28;20013;-85
2023/07/13 04:44:28;;;;;;;13.68;10.57;;;;;;;;;;6273517;28;20431;-84
2023/07/13 04:47:30;;;;;;;18.33;10.50;;;;;;;;;;6277395;28;20027;-85
2023/07/13 04:50:30;;;;;;;;;;;;;;;;;;6265607;28;20051;-84
2023/07/13 04:53:32;;;;;;;17.33;12.00;;;;;;;;;;6267546;28;19925;-85
2023/07/13 04:56:32;;;;;;;14.57;10.43;;;;;;;;;;6271993;28;20021;-84
2023/07/13 04:59:33;;;;;;;14.70;10.40;;;;;;;;;;6267189;28;20060;-85
2023/07/13 05:02:34;;;;;;;14.13;9.67;;;;;;;;;;6274064;28;20475;-85
2023/07/13 05:05:34;;;;;;;13.00;8.70;;;;;;;;;;6271007;28;20021;-85
2023/07/13 05:08:35;;;;;;;13.97;9.40;;;;;;;;;;6267133;28;20700;-85
2023/07/13 05:11:35;;;;;;;17.83;10.10;;;;;;;;;;6270831;28;20048;-84
2023/07/13 05:14:35;;;;;;;12.00;9.80;;;;;;;;;;6268407;28;20017;-84
2023/07/13 05:17:36;;;;;;;11.03;7.97;;;;;;;;;;6268011;28;20033;-83
2023/07/13 05:20:36;;;;;;;10.03;7.90;;;;;;;;;;6267377;28;20063;-85
2023/07/13 05:23:36;;;;;;;9.43;7.03;;;;;;;;;;6264509;28;20025;-85
2023/07/13 05:26:36;;;;;;;9.97;6.23;;;;;;;;;;6267791;28;20024;-85
2023/07/13 05:29:37;;;;;;;9.75;5.90;;;;;;;;;;6269509;28;20100;-85
2023/07/13 05:32:37;;;;;;;13.90;6.97;;;;;;;;;;6270437;28;20025;-85
2023/07/13 05:35:37;;;;;;;8.90;5.87;;;;;;;;;;6267832;28;20061;-86
2023/07/13 05:38:37;;;;;;;8.17;4.73;;;;;;;;;;6259527;28;20031;-85
2023/07/13 05:41:38;;;;;;;12.90;5.80;;;;;;;;;;6262800;28;20024;-86
2023/07/13 05:44:38;;;;;;;16.10;6.47;;;;;;;;;;6270496;28;20370;-86
2023/07/13 05:47:38;;;;;;;11.80;6.00;;;;;;;;;;6269485;28;20036;-86
2023/07/13 05:50:38;;;;;;;13.57;6.60;;;;;;;;;;6267988;28;20115;-86
2023/07/13 05:53:39;;;;;;;15.27;6.83;;;;;;;;;;6272545;28;20040;-86
2023/07/13 05:56:39;;;;;;;21.37;8.43;;;;;;;;;;6273848;28;20044;-86
2023/07/13 05:59:39;;;;;;;18.63;6.97;;;;;;;;;;6257453;28;20044;-86
2023/07/13 06:02:39;;;;;;;13.33;5.83;;;;;;;;;;6273186;28;20052;-86
2023/07/13 06:05:40;;;;;;;17.80;6.23;;;;;;;;;;6271546;28;20384;-86
2023/07/13 06:08:40;;;;;;;21.98;9.10;;;;;;;;;;6256013;28;20380;-86
2023/07/13 06:11:40;;;;;;;20.07;6.53;;;;;;;;;;6274710;28;20035;-86
2023/07/13 06:14:41;;;;;;;20.07;8.63;;;;;;;;;;6278310;28;20049;-86
2023/07/13 06:17:41;;;;;;;17.80;8.33;;;;;;;;;;6271949;28;20481;-86
2023/07/13 06:20:41;;;;;;;18.53;8.63;;;;;;;;;;6254255;28;20449;-84
2023/07/13 06:23:41;;;;;;;22.53;8.87;;;;;;;;;;6267197;28;20893;-84
2023/07/13 06:26:42;;;;;;;23.23;8.30;;;;;;;;;;6271862;28;20028;-85
2023/07/13 06:29:44;;;;;;;22.10;11.23;;;;;;;;;;6240361;28;20263;-84
2023/07/13 06:32:45;;;;;;;20.52;9.55;;;;;;;;;;6266773;28;20041;-84
2023/07/13 06:35:45;;;;;;;20.17;10.83;;;;;;;;;;6276431;28;20096;-84
2023/07/13 06:38:45;;;;;;;;;;;;;;;;;;6262433;28;20024;-84
2023/07/13 06:41:45;;;;;;;20.67;9.95;;;;;;;;;;6253672;28;19913;-84
2023/07/13 06:44:45;;;;;;;21.70;11.80;;;;;;;;;;6268381;28;20021;-83
2023/07/13 06:47:45;;;;;;;;;;;;;;;;;;6250968;28;20025;-83
2023/07/13 06:50:46;;;;;;;18.17;7.95;;;;;;;;;;6264751;28;19915;-83
2023/07/13 06:53:46;;;;;;;;;;;;;;;;;;6267134;28;20045;-84
2023/07/13 06:56:47;;;;;;;29.75;12.35;;;;;;;;;;6292539;28;20254;-83
2023/07/13 06:59:47;;;;;;;37.70;14.73;;;;;;;;;;6274316;28;20024;-84
2023/07/13 07:02:47;;;;;;;;;;;;;;;;;;6291851;28;20124;-82
2023/07/13 07:05:48;;;;;;;35.22;13.45;;;;;;;;;;6288414;28;20027;-83
2023/07/13 07:08:48;;;;;;;;;;;;;;;;;;6275723;28;20398;-84
2023/07/13 07:11:48;;;;;;;34.15;13.82;;;;;;;;;;6262327;28;19922;-85
2023/07/13 07:14:48;;;;;;;;;;;;;;;;;;6280757;28;20024;-85
2023/07/13 07:17:49;;;;;;;24.95;11.88;;;;;;;;;;6274304;28;20000;-85
2023/07/13 07:20:49;;;;;;;;;;;;;;;;;;6293539;28;20024;-85
2023/07/13 07:23:49;;;;;;;24.25;13.25;;;;;;;;;;6290965;28;19908;-85
2023/07/13 07:26:49;;;;;;;;;;;;;;;;;;6274495;28;20497;-84
2023/07/13 07:29:49;;;;;;;21.45;12.23;;;;;;;;;;6288007;28;19948;-84
2023/07/13 07:32:49;;;;;;;;;;;;;;;;;;6282808;28;20028;-87
2023/07/13 07:35:50;;;;;;;22.00;12.05;;;;;;;;;;6291903;28;19920;-86
2023/07/13 07:38:50;;;;;;;21.08;11.32;;;;;;;;;;6273430;28;20033;-86
2023/07/13 07:41:50;;;;;;;23.80;13.43;;;;;;;;;;6264060;28;20119;-84
2023/07/13 07:44:51;;;;;;;26.90;11.53;;;;;;;;;;6290053;28;20016;-84
2023/07/13 07:47:51;;;;;;;21.30;10.53;;;;;;;;;;6292264;28;20139;-85
2023/07/13 07:50:51;;;;;;;21.30;10.30;;;;;;;;;;6267025;28;20411;-84
2023/07/13 07:53:51;;;;;;;17.08;9.23;;;;;;;;;;6286896;28;20049;-84
2023/07/13 07:56:52;;;;;;;10.67;6.73;;;;;;;;;;6265536;28;20013;-84
2023/07/13 07:59:52;;;;;;;14.17;6.83;;;;;;;;;;6268587;28;20028;-84
2023/07/13 08:02:52;;;;;;;16.90;8.37;;;;;;;;;;6253556;28;20033;-84
2023/07/13 08:05:53;;;;;;;14.17;6.80;;;;;;;;;;6270654;28;20024;-84
2023/07/13 08:08:53;;;;;;;;;;;;;;;;;;6244918;28;20178;-85
2023/07/13 08:11:54;;;;;;;12.55;6.70;;;;;;;;;;6271370;28;20363;-86
2023/07/13 08:14:57;;;;;;;12.13;6.95;;;;;;;;;;6267005;28;20029;-85
2023/07/13 08:17:58;;;;;;;14.00;6.93;;;;;;;;;;6269988;28;20029;-86
2023/07/13 08:21:02;;;;;;;15.95;6.60;;;;;;;;;;6269054;28;20067;-86
2023/07/13 08:24:03;;;;;;;9.90;5.95;;;;;;;;;;6256315;28;20147;-86
2023/07/13 08:27:03;;;;;;;12.47;6.33;;;;;;;;;;6260470;28;20027;-85
2023/07/13 08:30:05;;;;;;;13.50;5.03;;;;;;;;;;6273835;28;20953;-85
2023/07/13 08:33:05;;;;;;;10.15;5.30;;;;;;;;;;6270264;28;20033;-85
2023/07/13 08:36:06;;;;;;;10.33;5.00;;;;;;;;;;6277914;28;20028;-86
2023/07/13 08:39:06;;;;;;;9.60;4.85;;;;;;;;;;6252519;28;20403;-87
2023/07/13 08:42:06;;;;;;;;;;;;;;;;;;6265342;28;20017;-87
2023/07/13 08:45:25;;;;;;;8.90;4.55;;;;;;;;;;6252715;28;19912;-86
2023/07/13 08:48:27;;;;;;;11.45;5.45;;;;;;;;;;6269623;28;20136;-87
2023/07/13 08:51:30;;;;;;;8.05;4.00;;;;;;;;;;6265445;28;20094;-86
2023/07/13 08:54:32;;;;;;;9.40;4.45;;;;;;;;;;6274438;28;20049;-86
2023/07/13 08:57:33;;;;;;;8.70;4.07;;;;;;;;;;6281179;28;20028;-86
2023/07/13 09:00:38;;;;;;;6.82;3.70;;;;;;;;;;6271800;28;20376;-85
2023/07/13 09:03:43;;;;;;;8.07;4.32;;;;;;;;;;6292549;28;20131;-86
2023/07/13 09:06:46;;;;;;;9.02;5.38;;;;;;;;;;6296129;28;20094;-85
2023/07/13 09:09:57;;;;;;;10.18;5.30;;;;;;;;;;6268303;28;20100;-85
2023/07/13 09:13:00;;;;;;;9.45;5.28;;;;;;;;;;6291682;28;20525;-86
2023/07/13 09:16:01;;;;;;;12.43;4.80;;;;;;;;;;6296746;28;20024;-85
2023/07/13 09:19:02;;;;;;;;;;;;;;;;;;6277845;28;20019;-85
2023/07/13 09:22:05;;;;;;;7.15;4.32;;;;;;;;;;6273495;28;19943;-84
2023/07/13 09:25:12;;;;;;;8.48;4.13;;;;;;;;;;6295533;28;20029;-86
2023/07/13 09:28:19;;;;;;;9.18;4.60;;;;;;;;;;6291981;28;20043;-86
2023/07/13 09:31:38;;;;;;;6.68;3.50;;;;;;;;;;6278336;28;20020;-86
2023/07/13 09:34:39;;;;;;;8.43;4.10;;;;;;;;;;6290643;28;20132;-85
2023/07/13 09:37:41;;;;;;;;;;;;;;;;;;6295574;28;20024;-86
2023/07/13 09:40:41;;;;;;;6.03;3.55;;;;;;;;;;6293304;28;19958;-86
2023/07/13 09:43:41;;;;;;;;;;;;;;;;;;6291399;28;20025;-86
2023/07/13 09:46:46;;;;;;;7.22;3.97;;;;;;;;;;6287078;28;19912;-86
2023/07/13 09:49:47;;;;;;;10.23;4.50;;;;;;;;;;6295215;28;20036;-86
2023/07/13 09:52:47;;;;;;;;;;;;;;;;;;6277225;28;20063;-86
2023/07/13 09:55:49;;;;;;;9.93;5.43;;;;;;;;;;6268865;28;19917;-86
2023/07/13 09:58:49;;;;;;;10.27;6.57;;;;;;;;;;6285722;28;20032;-86
2023/07/13 10:01:50;;;;;;;9.77;5.72;;;;;;;;;;6271338;28;20070;-86
2023/07/13 10:04:55;;;;;;;13.65;6.28;;;;;;;;;;6273737;28;20028;-86
2023/07/13 10:07:55;;;;;;;8.77;6.28;;;;;;;;;;6273900;28;20117;-86
2023/07/13 10:11:00;;;;;;;9.47;6.07;;;;;;;;;;6267877;28;20361;-86
2023/07/13 10:14:11;;;;;;;7.68;5.40;;;;;;;;;;6259954;28;20029;-86
2023/07/13 10:17:13;;;;;;;7.68;4.75;;;;;;;;;;6271915;28;20388;-85
2023/07/13 10:20:14;;;;;;;10.38;4.70;;;;;;;;;;6271377;28;20021;-85
2023/07/13 10:23:18;;;;;;;9.07;5.33;;;;;;;;;;6269495;28;20566;-87
2023/07/13 10:26:24;;;;;;;8.18;4.00;;;;;;;;;;6264307;28;20498;-87
2023/07/13 10:29:26;;;;;;;8.13;4.13;;;;;;;;;;6270691;28;20506;-86
2023/07/13 10:32:26;;;;;;;5.30;3.60;;;;;;;;;;6272545;28;20107;-86
2023/07/13 10:35:27;;;;;;;8.27;3.10;;;;;;;;;;6270162;28;20070;-86
2023/07/13 10:38:28;;;;;;;5.83;3.00;;;;;;;;;;6271608;28;20017;-86
2023/07/13 10:41:30;;;;;;;3.63;2.60;;;;;;;;;;6274352;28;20067;-87
2023/07/13 10:44:32;;;;;;;7.63;2.75;;;;;;;;;;6268264;28;20067;-86
2023/07/13 10:47:32;;;;;;;4.30;2.70;;;;;;;;;;6265938;28;20025;-86
2023/07/13 10:50:33;;;;;;;3.53;2.50;;;;;;;;;;6270512;28;20491;-87
2023/07/13 10:53:34;;;;;;;6.83;2.60;;;;;;;;;;6269086;28;20033;-87
2023/07/13 10:56:35;;;;;;;9.50;3.22;;;;;;;;;;6295136;28;20320;-88
2023/07/13 10:59:36;;;;;;;6.03;3.30;;;;;;;;;;6278354;28;20020;-87
2023/07/13 11:02:36;;;;;;;6.33;3.33;;;;;;;;;;6279561;28;20023;-86
2023/07/13 11:05:39;;;;;;;7.97;3.97;;;;;;;;;;6293188;28;20032;-86
2023/07/13 11:08:48;;;;;;;10.00;4.05;;;;;;;;;;6287047;28;20799;-87
2023/07/13 11:11:48;;;;;;;7.38;3.75;;;;;;;;;;6288315;28;20020;-87
2023/07/13 11:14:55;;;;;;;12.97;5.73;;;;;;;;;;6284788;28;20031;-86
2023/07/13 11:18:00;;;;;;;11.40;6.60;;;;;;;;;;6296454;28;20048;-86
2023/07/13 11:21:14;;;;;;;14.65;5.45;;;;;;;;;;6296829;28;20063;-87
2023/07/13 11:24:16;;;;;;;13.23;5.93;;;;;;;;;;6270957;28;20408;-87
2023/07/13 11:27:22;;;;;;;9.00;4.55;;;;;;;;;;6296062;28;20028;-87
2023/07/13 11:30:22;;;;;;;9.00;3.92;;;;;;;;;;6277760;28;20025;-86
2023/07/13 11:33:24;;;;;;;9.03;3.87;;;;;;;;;;6295995;28;20024;-86
2023/07/13 11:36:29;;;;;;;5.38;3.50;;;;;;;;;;6297888;28;20099;-86
2023/07/13 11:39:31;;;;;;;7.90;3.53;;;;;;;;;;6297156;28;20039;-87
2023/07/13 11:42:31;;;;;;;6.30;3.42;;;;;;;;;;6279030;28;20016;-86
2023/07/13 11:45:31;;;;;;;11.23;4.37;;;;;;;;;;6292917;28;20027;-86
2023/07/13 11:48:33;;;;;;;10.87;4.90;;;;;;;;;;6283235;28;20020;-86
2023/07/13 11:51:35;;;;;;;13.35;6.63;;;;;;;;;;6278597;28;20059;-87
2023/07/13 11:54:50;;;;;;;10.02;5.85;;;;;;;;;;6294635;28;20045;-86
2023/07/13 11:57:57;;;;;;;8.50;4.68;;;;;;;;;;6292836;28;20044;-86
2023/07/13 12:00:59;;;;;;;9.30;3.95;;;;;;;;;;6284039;28;20027;-86
2023/07/13 12:04:01;;;;;;;6.75;3.47;;;;;;;;;;6291296;28;20009;-86
2023/07/13 12:07:04;;;;;;;9.60;4.63;;;;;;;;;;6273181;28;20111;-87
2023/07/13 12:10:07;;;;;;;13.90;5.15;;;;;;;;;;6273250;28;20533;-88
2023/07/13 12:13:08;;;;;;;14.90;5.72;;;;;;;;;;6273984;28;20052;-86
2023/07/13 12:16:14;;;;;;;16.60;5.72;;;;;;;;;;6272972;28;20020;-87
2023/07/13 12:19:21;;;;;;;11.98;4.35;;;;;;;;;;6262477;28;20026;-86
2023/07/13 12:22:22;;;;;;;19.58;5.38;;;;;;;;;;6288830;28;20028;-89
2023/07/13 12:25:23;;;;;;;16.48;5.15;;;;;;;;;;6303440;28;20085;-89
2023/07/13 12:28:32;;;;;;;7.70;3.47;;;;;;;;;;6315693;28;20040;-90
2023/07/13 12:31:52;;;;;;;8.88;3.13;;;;;;;;;;6301009;28;20309;-90
2023/07/13 12:34:56;;;;;;;7.03;3.88;;;;;;;;;;6298434;28;20028;-90
2023/07/13 12:37:57;;;;;;;9.75;3.88;;;;;;;;;;6302194;28;20400;-91
2023/07/13 12:40:58;;;;;;;5.55;3.20;;;;;;;;;;6292804;28;20005;-90
2023/07/13 12:44:08;;;;;;;3.80;2.60;;;;;;;;;;6287208;28;20073;-89
2023/07/13 12:47:11;;;;;;;5.63;2.28;;;;;;;;;;6279045;28;20020;-89
2023/07/13 12:50:18;;;;;;;10.85;3.03;;;;;;;;;;6311665;28;20031;-89
2023/07/13 12:53:23;;;;;;;8.50;3.22;;;;;;;;;;6301741;28;20081;-88
2023/07/13 12:56:25;;;;;;;13.25;4.65;;;;;;;;;;6289249;28;20044;-88
2023/07/13 12:59:28;;;;;;;10.98;4.85;;;;;;;;;;6291145;28;20025;-89
2023/07/13 13:02:30;;;;;;;12.23;4.50;;;;;;;;;;6312068;28;20024;-89
2023/07/13 13:05:31;;;;;;;6.93;3.85;;;;;;;;;;6300142;28;20059;-88
2023/07/13 13:08:33;;;;;;;9.13;3.75;;;;;;;;;;6309355;28;20036;-88
2023/07/13 13:11:34;;;;;;;5.32;3.33;;;;;;;;;;6296469;28;20087;-88
2023/07/13 13:14:36;;;;;;;7.88;2.72;;;;;;;;;;6284919;28;20031;-84
2023/07/13 13:17:37;;;;;;;4.80;2.80;;;;;;;;;;6287931;28;20400;-84
2023/07/13 13:20:37;;;;;;;4.37;2.67;;;;;;;;;;6294008;28;20042;-85
2023/07/13 13:23:38;;;;;;;5.23;2.57;;;;;;;;;;6295313;28;20023;-85
2023/07/13 13:26:38;;;;;;;3.38;2.13;;;;;;;;;;6279782;28;20150;-85
2023/07/13 13:29:39;;;;;;;6.40;2.83;;;;;;;;;;6293280;28;20666;-85
2023/07/13 13:32:43;;;;;;;4.27;2.93;;;;;;;;;;6288200;28;20602;-84
2023/07/13 13:35:43;;;;;;;4.38;2.47;;;;;;;;;;6295614;28;20521;-85
2023/07/13 13:38:44;;;;;;;6.10;2.80;;;;;;;;;;6277743;28;20016;-85
2023/07/13 13:41:44;;;;;;;3.25;2.10;;;;;;;;;;6278677;28;20025;-85
2023/07/13 13:44:44;;;;;;;4.50;2.60;;;;;;;;;;6273994;28;20758;-85
2023/07/13 13:47:45;;;;;;;2.27;2.07;;;;;;;;;;6286487;28;20036;-85
2023/07/13 13:50:45;;;;;;;7.07;2.30;;;;;;;;;;6295969;28;20024;-85
